Time;durP1;ratioP1;P1;durP2;ratioP2;P2;SDS_P1;SDS_P2;PMS_P1;PMS_P2;Temp;Humidity;BMP_temperature;BMP_pressure;BME280_temperature;BME280_humidity;BME280_pressure;Samples;Min_cycle;Max_cycle;Signal;HPM_P1;HPM_P2
2023/07/06 00:02:23;;;;;;;0.40;0.40;;;13.20;99.90;;;;;;5135080;27;20043;-72
2023/07/06 00:04:49;;;;;;;0.40;0.40;;;13.10;99.90;;;;;;5134775;27;20525;-71
2023/07/06 00:07:21;;;;;;;0.50;0.50;;;13.10;99.90;;;;;;5134810;27;20047;-72
2023/07/06 00:09:50;;;;;;;0.50;0.50;;;13.10;99.90;;;;;;5134931;27;20047;-71
2023/07/06 00:12:18;;;;;;;0.50;0.50;;;13.00;99.90;;;;;;5134402;27;20039;-72
2023/07/06 00:14:44;;;;;;;0.40;0.40;;;13.00;99.90;;;;;;5134528;27;20111;-71
2023/07/06 00:17:12;;;;;;;0.50;0.50;;;13.00;99.90;;;;;;5116607;27;20039;-72
2023/07/06 00:19:39;;;;;;;0.63;0.63;;;13.00;99.90;;;;;;5134436;27;20435;-71
2023/07/06 00:22:06;;;;;;;0.50;0.50;;;12.90;99.90;;;;;;5134695;27;20056;-72
2023/07/06 00:24:31;;;;;;;0.50;0.50;;;12.90;99.90;;;;;;5134384;27;20565;-73
2023/07/06 00:26:57;;;;;;;0.40;0.40;;;12.80;99.90;;;;;;5134527;27;20122;-72
2023/07/06 00:29:23;;;;;;;0.57;0.57;;;12.80;99.90;;;;;;5133989;27;20081;-72
2023/07/06 00:31:51;;;;;;;0.50;0.50;;;12.80;99.90;;;;;;5134289;27;20043;-73
2023/07/06 00:34:18;;;;;;;0.40;0.40;;;12.70;99.90;;;;;;5134338;27;20041;-72
2023/07/06 00:36:46;;;;;;;0.50;0.50;;;12.70;99.90;;;;;;5134245;27;20039;-73
2023/07/06 00:39:13;;;;;;;0.50;0.50;;;12.70;99.90;;;;;;5134453;27;20043;-73
2023/07/06 00:41:40;;;;;;;0.50;0.50;;;12.60;99.90;;;;;;5133965;27;20125;-73
2023/07/06 00:44:05;;;;;;;0.50;0.50;;;12.60;99.90;;;;;;5134222;27;20419;-73
2023/07/06 00:46:39;;;;;;;0.40;0.40;;;12.60;99.90;;;;;;5134041;28;20051;-72
2023/07/06 00:49:12;;;;;;;0.50;0.50;;;12.60;99.90;;;;;;5134229;28;20070;-72
2023/07/06 00:51:39;;;;;;;0.50;0.50;;;12.50;99.90;;;;;;5134464;28;20138;-73
2023/07/06 00:54:16;;;;;;;0.50;0.50;;;12.50;99.90;;;;;;5134292;28;20074;-73
2023/07/06 00:56:45;;;;;;;0.50;0.50;;;12.40;99.90;;;;;;5134059;28;20352;-72
2023/07/06 00:59:15;;;;;;;0.50;0.50;;;12.40;99.90;;;;;;5133951;28;20371;-73
2023/07/06 01:01:44;;;;;;;0.40;0.40;;;12.40;99.90;;;;;;5115646;28;20050;-72
2023/07/06 01:04:13;;;;;;;0.47;0.47;;;12.40;99.90;;;;;;5133561;28;20495;-73
2023/07/06 01:06:44;;;;;;;0.50;0.50;;;12.30;99.90;;;;;;5134188;28;20061;-73
2023/07/06 01:09:11;;;;;;;0.50;0.50;;;12.30;99.90;;;;;;5134110;28;20091;-73
2023/07/06 01:11:38;;;;;;;0.50;0.50;;;12.30;99.90;;;;;;5133984;28;20043;-74
2023/07/06 01:14:03;;;;;;;;;;;12.20;99.90;;;;;;5134521;28;20088;-73
2023/07/06 01:16:38;;;;;;;0.63;0.63;;;12.20;99.90;;;;;;5134046;28;20281;-72
2023/07/06 01:19:50;;;;;;;0.50;0.50;;;12.10;99.90;;;;;;5136455;27;20074;-73
2023/07/06 01:22:48;;;;;;;0.50;0.50;;;12.10;99.90;;;;;;5138310;27;20039;-73
2023/07/06 01:25:53;;;;;;;0.50;0.50;;;12.00;99.90;;;;;;5137777;27;20434;-72
2023/07/06 01:29:09;;;;;;;0.50;0.50;;;12.00;99.90;;;;;;5138149;27;20103;-72
2023/07/06 01:32:06;;;;;;;0.50;0.50;;;12.00;99.90;;;;;;5137573;27;20035;-73
2023/07/06 01:35:01;;;;;;;0.60;0.60;;;11.90;99.90;;;;;;5135967;27;20097;-72
2023/07/06 01:37:34;;;;;;;0.50;0.50;;;11.90;99.90;;;;;;5115983;27;20395;-73
2023/07/06 01:40:01;;;;;;;0.55;0.55;;;11.90;99.90;;;;;;5137725;27;20043;-72
2023/07/06 01:42:30;;;;;;;0.55;0.55;;;11.80;99.90;;;;;;5137416;27;20110;-73
2023/07/06 01:45:06;;;;;;;0.50;0.50;;;11.80;99.90;;;;;;5137744;27;20043;-72
2023/07/06 01:47:36;;;;;;;0.50;0.50;;;11.80;99.90;;;;;;5137624;27;20077;-73
2023/07/06 01:50:04;;;;;;;1.48;1.13;;;11.80;99.90;;;;;;5137356;27;20121;-73
2023/07/06 01:52:56;;;;;;;0.50;0.50;;;11.80;99.90;;;;;;5137374;27;20530;-73
2023/07/06 01:55:22;;;;;;;0.50;0.50;;;11.70;99.90;;;;;;5124116;27;20047;-72
2023/07/06 01:57:56;;;;;;;0.47;0.47;;;11.80;99.90;;;;;;5137326;27;20390;-73
2023/07/06 02:00:24;;;;;;;0.50;0.50;;;11.80;99.90;;;;;;5137466;27;20039;-73
2023/07/06 02:02:52;;;;;;;0.50;0.50;;;11.80;99.90;;;;;;5137081;27;20052;-72
2023/07/06 02:05:19;;;;;;;0.50;0.50;;;11.80;99.90;;;;;;5136963;27;20051;-73
2023/07/06 02:07:45;;;;;;;0.50;0.50;;;11.80;99.90;;;;;;5136863;27;20047;-73
2023/07/06 02:10:15;;;;;;;0.50;0.50;;;11.80;99.90;;;;;;5137046;27;20031;-72
2023/07/06 02:12:43;;;;;;;0.50;0.50;;;11.90;99.90;;;;;;5137032;27;20045;-73
2023/07/06 02:15:10;;;;;;;0.50;0.50;;;11.90;99.90;;;;;;5136980;27;20043;-73
2023/07/06 02:17:36;;;;;;;0.50;0.50;;;11.90;99.90;;;;;;5137352;27;20043;-72
2023/07/06 02:20:03;;;;;;;0.50;0.50;;;11.90;99.90;;;;;;5136773;27;20096;-73
2023/07/06 02:22:28;;;;;;;0.40;0.40;;;11.90;99.90;;;;;;5136963;27;20114;-72
2023/07/06 02:24:54;;;;;;;0.75;0.73;;;12.00;99.90;;;;;;5136726;27;20139;-73
2023/07/06 02:27:19;;;;;;;0.40;0.40;;;11.90;99.90;;;;;;5136927;27;20039;-73
2023/07/06 02:29:45;;;;;;;0.50;0.50;;;12.00;99.90;;;;;;5135353;27;20197;-72
2023/07/06 02:32:12;;;;;;;0.50;0.50;;;12.00;99.90;;;;;;5136610;27;20046;-73
2023/07/06 02:34:37;;;;;;;0.50;0.50;;;12.00;99.90;;;;;;5136325;27;20035;-72
2023/07/06 02:37:03;;;;;;;0.40;0.40;;;12.10;99.90;;;;;;5136661;27;20277;-72
2023/07/06 02:39:30;;;;;;;0.50;0.50;;;12.10;99.90;;;;;;5136430;27;20050;-72
2023/07/06 02:41:56;;;;;;;0.40;0.40;;;12.10;99.90;;;;;;5136525;27;20100;-72
2023/07/06 02:44:24;;;;;;;0.45;0.45;;;12.10;99.90;;;;;;5136628;27;20176;-72
2023/07/06 02:46:50;;;;;;;0.40;0.40;;;12.10;99.90;;;;;;5118173;27;20123;-72
2023/07/06 02:49:16;;;;;;;0.50;0.50;;;12.10;99.90;;;;;;5136302;27;20066;-73
2023/07/06 02:51:43;;;;;;;0.43;0.43;;;12.10;99.90;;;;;;5136326;27;20039;-73
2023/07/06 02:54:15;;;;;;;0.50;0.50;;;12.10;99.90;;;;;;5136046;27;20461;-73
2023/07/06 02:56:43;;;;;;;1.23;1.13;;;12.10;99.90;;;;;;5136380;27;20451;-72
2023/07/06 02:59:10;;;;;;;0.50;0.50;;;12.10;99.90;;;;;;5135969;27;20122;-72
2023/07/06 03:01:36;;;;;;;0.50;0.50;;;12.10;99.90;;;;;;5135922;27;20031;-73
2023/07/06 03:04:09;;;;;;;0.50;0.50;;;12.20;99.90;;;;;;5135763;27;20138;-72
2023/07/06 03:06:36;;;;;;;0.70;0.70;;;12.20;99.90;;;;;;5136019;27;20039;-72
2023/07/06 03:09:02;;;;;;;0.50;0.50;;;12.20;99.90;;;;;;5135862;27;20043;-73
2023/07/06 03:11:28;;;;;;;0.40;0.40;;;12.20;99.90;;;;;;5135938;27;20062;-73
2023/07/06 03:13:55;;;;;;;0.75;0.73;;;12.20;99.90;;;;;;5135775;27;20118;-72
2023/07/06 03:16:21;;;;;;;0.73;0.73;;;12.20;99.90;;;;;;5135601;27;20039;-73
2023/07/06 03:18:46;;;;;;;0.43;0.43;;;12.20;99.90;;;;;;5135696;27;20039;-72
2023/07/06 03:21:12;;;;;;;0.70;0.70;;;12.20;99.90;;;;;;5135688;27;20039;-72
2023/07/06 03:23:38;;;;;;;0.40;0.40;;;12.20;99.90;;;;;;5135538;27;20466;-73
2023/07/06 03:26:04;;;;;;;0.40;0.40;;;12.20;99.90;;;;;;5135434;27;20080;-72
2023/07/06 03:28:29;;;;;;;0.50;0.50;;;12.20;99.90;;;;;;5135469;27;20035;-73
2023/07/06 03:30:56;;;;;;;0.40;0.40;;;12.20;99.90;;;;;;5135021;27;20472;-73
2023/07/06 03:33:24;;;;;;;0.88;0.88;;;12.20;99.90;;;;;;5135531;27;20074;-72
2023/07/06 03:35:54;;;;;;;0.40;0.40;;;12.20;99.90;;;;;;5135377;27;20042;-73
2023/07/06 03:38:25;;;;;;;0.40;0.40;;;12.20;99.90;;;;;;5135450;27;20046;-72
2023/07/06 03:40:52;;;;;;;0.40;0.40;;;12.20;99.90;;;;;;5134758;27;20043;-72
2023/07/06 03:43:19;;;;;;;;;;;12.20;99.90;;;;;;5135682;27;20045;-73
2023/07/06 03:45:47;;;;;;;0.50;0.50;;;12.20;99.90;;;;;;5134868;27;19916;-72
2023/07/06 03:48:16;;;;;;;0.40;0.40;;;12.20;99.90;;;;;;5135188;27;20487;-73
2023/07/06 03:50:43;;;;;;;0.50;0.50;;;12.20;99.90;;;;;;5116717;27;20043;-73
2023/07/06 03:53:10;;;;;;;0.40;0.40;;;12.20;99.90;;;;;;5135235;27;20042;-73
2023/07/06 03:55:35;;;;;;;;;;;12.30;99.90;;;;;;5135241;27;20700;-73
2023/07/06 03:58:01;;;;;;;0.52;0.52;;;12.30;99.90;;;;;;5135124;27;19923;-73
2023/07/06 04:00:28;;;;;;;0.40;0.40;;;12.30;99.90;;;;;;5134899;27;20466;-73
2023/07/06 04:02:57;;;;;;;;;;;12.30;99.90;;;;;;5135022;27;20471;-72
2023/07/06 04:05:32;;;;;;;0.47;0.47;;;12.30;99.90;;;;;;5134225;27;19922;-73
2023/07/06 04:08:09;;;;;;;0.60;0.60;;;12.30;99.90;;;;;;5135012;27;20042;-73
2023/07/06 04:10:37;;;;;;;0.40;0.40;;;12.40;99.90;;;;;;5134745;27;20356;-72
2023/07/06 04:13:04;;;;;;;0.50;0.50;;;12.40;99.90;;;;;;5134660;27;20043;-73
2023/07/06 04:15:30;;;;;;;;;;;12.50;99.90;;;;;;5135272;27;20405;-73
2023/07/06 04:17:56;;;;;;;0.40;0.40;;;12.50;99.90;;;;;;5116457;27;19966;-72
2023/07/06 04:20:27;;;;;;;0.50;0.50;;;12.60;99.90;;;;;;5134534;27;20070;-72
2023/07/06 04:22:55;;;;;;;0.50;0.50;;;12.60;99.90;;;;;;5134461;27;20187;-73
2023/07/06 04:25:26;;;;;;;0.43;0.43;;;12.70;99.90;;;;;;5134531;27;20039;-73
2023/07/06 04:27:53;;;;;;;0.40;0.40;;;12.70;99.90;;;;;;5134515;27;20043;-73
2023/07/06 04:30:20;;;;;;;1.05;0.98;;;12.80;99.90;;;;;;5134239;27;20046;-73
2023/07/06 04:32:48;;;;;;;;;;;12.80;99.90;;;;;;5116491;27;20042;-73
2023/07/06 04:35:16;;;;;;;0.40;0.40;;;12.90;99.90;;;;;;5134175;27;20366;-73
2023/07/06 04:37:45;;;;;;;0.40;0.40;;;12.90;99.90;;;;;;5116239;27;20042;-72
2023/07/06 04:40:13;;;;;;;0.30;0.30;;;13.00;99.90;;;;;;5134335;27;20039;-73
2023/07/06 04:42:42;;;;;;;0.50;0.50;;;13.00;99.90;;;;;;5116222;28;20081;-73
2023/07/06 04:45:11;;;;;;;0.40;0.40;;;13.10;99.90;;;;;;5134385;27;20125;-72
2023/07/06 04:47:38;;;;;;;0.40;0.40;;;13.10;99.90;;;;;;5134168;28;20164;-72
2023/07/06 04:50:37;;;;;;;0.47;0.47;;;13.20;99.90;;;;;;5134296;28;20043;-73
2023/07/06 04:53:04;;;;;;;1.02;0.60;;;13.20;99.90;;;;;;5134823;27;20047;-72
2023/07/06 04:55:30;;;;;;;;;;;13.30;99.90;;;;;;5139076;27;20083;-72
2023/07/06 04:57:58;;;;;;;0.40;0.40;;;13.30;99.90;;;;;;5138276;27;19919;-72
2023/07/06 05:00:28;;;;;;;0.40;0.40;;;13.30;99.90;;;;;;5138299;27;20072;-72
2023/07/06 05:02:58;;;;;;;0.50;0.50;;;13.30;99.90;;;;;;5137976;27;20039;-72
2023/07/06 05:05:25;;;;;;;0.40;0.40;;;13.30;99.90;;;;;;5138346;27;20522;-72
2023/07/06 05:07:52;;;;;;;0.40;0.40;;;13.30;99.90;;;;;;5119983;27;20130;-72
2023/07/06 05:10:18;;;;;;;0.60;0.60;;;13.40;99.90;;;;;;5138365;27;20039;-72
2023/07/06 05:12:44;;;;;;;0.50;0.50;;;13.40;99.90;;;;;;5138234;27;20126;-73
2023/07/06 05:15:11;;;;;;;0.67;0.67;;;13.50;99.90;;;;;;5138232;27;20678;-72
2023/07/06 05:17:38;;;;;;;0.50;0.50;;;13.50;99.90;;;;;;5137792;27;20268;-73
2023/07/06 05:20:06;;;;;;;2.92;2.47;;;13.60;99.90;;;;;;5138298;27;20078;-73
2023/07/06 05:22:38;;;;;;;1.30;1.20;;;13.60;99.90;;;;;;5137979;27;20082;-72
2023/07/06 05:25:04;;;;;;;0.45;0.45;;;13.70;99.90;;;;;;5137865;27;20506;-72
2023/07/06 05:27:31;;;;;;;0.50;0.50;;;13.80;99.90;;;;;;5138064;27;20031;-72
2023/07/06 05:29:57;;;;;;;0.50;0.50;;;14.00;99.90;;;;;;5138289;27;20055;-73
2023/07/06 05:32:22;;;;;;;0.43;0.43;;;14.30;99.90;;;;;;5137674;27;20039;-73
2023/07/06 05:34:48;;;;;;;0.50;0.50;;;14.50;99.90;;;;;;5138147;27;20485;-73
2023/07/06 05:37:14;;;;;;;0.83;0.83;;;14.80;99.90;;;;;;5137814;27;20115;-73
2023/07/06 05:39:39;;;;;;;0.77;0.77;;;15.00;99.90;;;;;;5137853;27;20431;-74
2023/07/06 05:42:05;;;;;;;0.60;0.60;;;15.30;99.90;;;;;;5137733;27;20419;-74
2023/07/06 05:44:31;;;;;;;0.50;0.50;;;15.40;99.90;;;;;;5138069;27;20048;-75
2023/07/06 05:46:57;;;;;;;0.50;0.50;;;15.50;99.90;;;;;;5137724;27;20046;-74
2023/07/06 05:49:22;;;;;;;0.43;0.43;;;15.60;99.90;;;;;;5137673;27;20331;-72
2023/07/06 05:51:48;;;;;;;0.47;0.47;;;15.70;99.90;;;;;;5137600;27;20178;-74
2023/07/06 05:54:14;;;;;;;0.50;0.50;;;15.70;99.90;;;;;;5137490;27;20052;-72
2023/07/06 05:56:41;;;;;;;0.40;0.40;;;15.80;99.90;;;;;;5137651;27;20039;-74
2023/07/06 05:59:08;;;;;;;0.45;0.45;;;15.80;99.90;;;;;;5137218;27;20423;-73
2023/07/06 06:01:35;;;;;;;0.60;0.60;;;15.80;99.90;;;;;;5136901;27;20046;-72
2023/07/06 06:04:01;;;;;;;0.82;0.82;;;15.80;99.90;;;;;;5137096;27;20053;-74
2023/07/06 06:06:27;;;;;;;2.97;2.75;;;15.80;99.90;;;;;;5137282;27;20387;-72
2023/07/06 06:08:53;;;;;;;0.50;0.50;;;15.80;99.90;;;;;;5137317;27;20043;-73
2023/07/06 06:11:20;;;;;;;0.57;0.57;;;15.80;99.90;;;;;;5137209;27;20039;-77
2023/07/06 06:13:47;;;;;;;1.85;1.25;;;15.90;99.90;;;;;;5137129;27;20478;-76
2023/07/06 06:16:13;;;;;;;;;;;15.90;99.90;;;;;;5151980;27;20030;-75
2023/07/06 06:18:39;;;;;;;0.40;0.40;;;15.90;99.90;;;;;;5158009;27;19922;-76
2023/07/06 06:21:06;;;;;;;0.40;0.40;;;16.00;99.90;;;;;;5139509;27;20041;-76
2023/07/06 06:23:32;;;;;;;0.40;0.40;;;16.10;99.90;;;;;;5157697;27;20042;-72
2023/07/06 06:25:58;;;;;;;0.40;0.40;;;16.20;99.90;;;;;;5139005;27;20070;-82
2023/07/06 06:28:25;;;;;;;0.40;0.40;;;16.30;99.90;;;;;;5136096;27;20394;-71
2023/07/06 06:30:51;;;;;;;0.50;0.50;;;16.40;99.90;;;;;;5137030;27;20475;-72
2023/07/06 06:33:17;;;;;;;0.43;0.43;;;16.50;99.90;;;;;;5118551;27;20106;-76
2023/07/06 06:35:44;;;;;;;0.50;0.50;;;16.50;99.90;;;;;;5137044;27;20443;-71
2023/07/06 06:38:10;;;;;;;;;;;16.50;99.90;;;;;;5137473;27;20043;-82
2023/07/06 06:40:36;;;;;;;0.30;0.30;;;16.50;99.90;;;;;;5136865;27;20070;-73
2023/07/06 06:43:03;;;;;;;0.57;0.57;;;16.50;99.90;;;;;;5137077;27;20047;-72
2023/07/06 06:45:30;;;;;;;;;;;16.60;99.90;;;;;;5137163;27;20265;-72
2023/07/06 06:47:56;;;;;;;0.40;0.40;;;16.60;99.90;;;;;;5137003;27;20044;-71
2023/07/06 06:50:22;;;;;;;0.70;0.70;;;16.70;99.90;;;;;;5136762;27;20035;-72
2023/07/06 06:52:49;;;;;;;0.63;0.63;;;16.70;99.90;;;;;;5136497;27;20042;-72
2023/07/06 06:55:16;;;;;;;0.65;0.65;;;16.80;99.90;;;;;;5136927;27;20091;-72
2023/07/06 06:57:42;;;;;;;0.40;0.40;;;16.80;99.90;;;;;;5136690;27;20386;-73
2023/07/06 07:00:14;;;;;;;0.73;0.73;;;17.10;99.90;;;;;;5136277;27;20039;-73
2023/07/06 07:02:41;;;;;;;0.68;0.68;;;17.10;99.90;;;;;;5136522;27;20039;-73
2023/07/06 07:05:09;;;;;;;0.60;0.60;;;17.20;99.90;;;;;;5136239;27;20090;-72
2023/07/06 07:07:37;;;;;;;0.50;0.50;;;17.40;99.90;;;;;;5136833;27;20092;-73
2023/07/06 07:10:09;;;;;;;0.45;0.45;;;17.80;99.90;;;;;;5136362;27;20035;-73
2023/07/06 07:12:40;;;;;;;0.60;0.60;;;18.10;99.90;;;;;;5136214;27;20035;-73
2023/07/06 07:15:09;;;;;;;2.65;1.98;;;18.30;99.90;;;;;;5136772;27;20050;-72
2023/07/06 07:17:35;;;;;;;0.68;0.60;;;18.40;99.90;;;;;;5117375;27;20042;-72
2023/07/06 07:20:01;;;;;;;0.68;0.68;;;18.30;99.90;;;;;;5136418;27;20390;-72
2023/07/06 07:22:27;;;;;;;0.40;0.40;;;18.20;99.90;;;;;;5136026;27;20031;-73
2023/07/06 07:24:53;;;;;;;0.40;0.40;;;18.10;99.90;;;;;;5136026;27;20043;-73
2023/07/06 07:27:19;;;;;;;0.50;0.50;;;18.20;99.90;;;;;;5134646;27;20493;-73
2023/07/06 07:29:47;;;;;;;0.40;0.40;;;18.30;99.90;;;;;;5135905;27;20269;-72
2023/07/06 07:32:13;;;;;;;0.60;0.60;;;18.40;99.90;;;;;;5135896;27;20387;-78
2023/07/06 07:34:40;;;;;;;0.40;0.40;;;18.70;99.90;;;;;;5135717;27;20374;-73
2023/07/06 07:37:10;;;;;;;0.98;0.73;;;18.90;99.90;;;;;;5135833;27;20074;-73
2023/07/06 07:39:36;;;;;;;0.50;0.50;;;18.90;99.90;;;;;;5135804;27;20079;-73
2023/07/06 07:42:03;;;;;;;0.80;0.80;;;19.00;99.90;;;;;;5135907;27;20116;-76
2023/07/06 07:44:29;;;;;;;0.70;0.70;;;19.10;99.90;;;;;;5135714;27;20049;-74
2023/07/06 07:46:55;;;;;;;0.60;0.60;;;19.30;99.90;;;;;;5135666;27;20035;-73
2023/07/06 07:49:21;;;;;;;2.08;0.88;;;19.30;99.90;;;;;;5135392;27;20066;-71
2023/07/06 07:51:46;;;;;;;0.80;0.80;;;19.20;99.90;;;;;;5135503;27;20097;-74
2023/07/06 07:54:12;;;;;;;0.60;0.60;;;19.20;99.90;;;;;;5135609;27;20078;-75
2023/07/06 07:56:38;;;;;;;1.30;0.87;;;19.30;99.90;;;;;;5135350;27;20039;-74
2023/07/06 07:59:04;;;;;;;0.40;0.40;;;19.40;99.90;;;;;;5135830;27;20312;-73
2023/07/06 08:01:30;;;;;;;0.60;0.60;;;19.50;99.90;;;;;;5135260;27;20439;-74
2023/07/06 08:03:57;;;;;;;0.70;0.70;;;19.60;99.90;;;;;;5135083;27;20043;-73
2023/07/06 08:06:23;;;;;;;;;;;19.80;99.90;;;;;;5135643;27;20082;-71
2023/07/06 08:08:49;;;;;;;0.70;0.70;;;20.10;99.90;;;;;;5134916;27;20278;-75
2023/07/06 08:11:21;;;;;;;0.65;0.65;;;20.30;99.90;;;;;;5135086;27;20035;-74
2023/07/06 08:13:50;;;;;;;0.30;0.30;;;20.50;99.90;;;;;;5135226;27;20033;-74
2023/07/06 08:16:17;;;;;;;0.30;0.30;;;20.60;99.90;;;;;;5135509;27;20399;-75
2023/07/06 08:18:43;;;;;;;;;;;20.60;99.90;;;;;;5135185;27;20042;-70
2023/07/06 08:21:10;;;;;;;0.40;0.40;;;20.40;99.90;;;;;;5134571;27;19915;-72
2023/07/06 08:23:40;;;;;;;0.43;0.43;;;20.30;99.90;;;;;;5134819;27;20074;-72
2023/07/06 08:26:08;;;;;;;0.30;0.30;;;20.40;99.90;;;;;;5134960;27;20043;-73
2023/07/06 08:28:34;;;;;;;0.30;0.30;;;20.50;99.90;;;;;;5134810;27;20046;-73
2023/07/06 08:31:02;;;;;;;0.38;0.38;;;20.60;99.90;;;;;;5134568;27;20039;-72
2023/07/06 08:33:32;;;;;;;0.30;0.30;;;20.80;99.90;;;;;;5116500;27;20036;-73
2023/07/06 08:35:58;;;;;;;0.40;0.40;;;21.00;99.90;;;;;;5134791;27;20039;-71
2023/07/06 08:38:24;;;;;;;0.82;0.82;;;21.10;99.90;;;;;;5134456;27;20394;-72
2023/07/06 08:40:52;;;;;;;0.30;0.30;;;21.00;99.90;;;;;;5134730;27;20027;-72
2023/07/06 08:43:25;;;;;;;0.30;0.30;;;21.00;99.90;;;;;;5134658;27;20053;-72
2023/07/06 08:45:58;;;;;;;0.40;0.40;;;21.10;99.90;;;;;;5134768;27;20042;-72
2023/07/06 08:48:26;;;;;;;0.82;0.73;;;21.30;99.90;;;;;;5134974;28;20083;-72
2023/07/06 08:50:58;;;;;;;0.35;0.35;;;21.20;99.90;;;;;;5134541;28;20039;-72
2023/07/06 08:53:28;;;;;;;0.30;0.30;;;20.90;99.90;;;;;;5135016;28;20031;-73
2023/07/06 08:55:57;;;;;;;0.75;0.75;;;20.90;99.90;;;;;;5134460;28;20039;-73
2023/07/06 08:58:31;;;;;;;0.30;0.30;;;21.00;99.90;;;;;;5134404;28;20463;-73
2023/07/06 09:01:12;;;;;;;0.47;0.47;;;21.10;99.90;;;;;;5134646;28;20039;-73
2023/07/06 09:03:46;;;;;;;0.30;0.30;;;21.30;99.90;;;;;;5134525;28;20031;-73
2023/07/06 09:06:19;;;;;;;0.50;0.50;;;21.30;99.90;;;;;;5134469;28;20051;-73
2023/07/06 09:08:50;;;;;;;0.40;0.40;;;21.40;99.90;;;;;;5134390;28;20080;-73
2023/07/06 09:11:17;;;;;;;0.30;0.30;;;21.40;99.90;;;;;;5134616;28;20045;-72
2023/07/06 09:13:49;;;;;;;0.50;0.50;;;21.60;99.90;;;;;;5134089;28;20039;-72
2023/07/06 09:16:19;;;;;;;0.30;0.30;;;21.70;99.90;;;;;;5134445;28;20074;-73
2023/07/06 09:18:46;;;;;;;0.30;0.30;;;22.00;99.90;;;;;;5135017;28;20062;-74
2023/07/06 09:21:12;;;;;;;;;;;22.10;99.90;;;;;;5133405;28;20099;-73
2023/07/06 09:23:37;;;;;;;0.30;0.30;;;22.20;99.90;;;;;;5124290;28;20260;-72
2023/07/06 09:26:08;;;;;;;0.30;0.30;;;22.20;99.90;;;;;;5120187;28;20043;-73
2023/07/06 09:28:34;;;;;;;0.30;0.30;;;22.30;99.90;;;;;;5133760;28;20079;-73
2023/07/06 09:31:18;;;;;;;0.30;0.30;;;22.30;99.90;;;;;;5134093;28;20382;-72
2023/07/06 09:33:48;;;;;;;0.30;0.30;;;22.50;99.90;;;;;;5134238;28;20046;-73
2023/07/06 09:36:22;;;;;;;0.65;0.63;;;22.70;99.90;;;;;;5134068;28;20077;-73
2023/07/06 09:38:47;;;;;;;0.40;0.40;;;22.50;99.90;;;;;;5133885;27;20383;-74
2023/07/06 09:41:25;;;;;;;0.30;0.30;;;22.30;99.90;;;;;;5137475;27;20047;-72
2023/07/06 09:43:59;;;;;;;0.28;0.28;;;22.10;99.90;;;;;;5137657;27;20501;-73
2023/07/06 09:46:32;;;;;;;0.38;0.38;;;21.80;99.90;;;;;;5137699;27;20046;-72
2023/07/06 09:48:59;;;;;;;0.30;0.30;;;21.70;99.90;;;;;;5137838;27;20038;-73
2023/07/06 09:51:46;;;;;;;0.30;0.30;;;21.50;99.90;;;;;;5137562;27;20047;-72
2023/07/06 09:54:32;;;;;;;1.13;1.02;;;21.50;99.90;;;;;;5137552;27;20039;-72
2023/07/06 09:56:59;;;;;;;0.32;0.32;;;21.40;99.90;;;;;;5137759;27;20031;-72
2023/07/06 09:59:25;;;;;;;0.40;0.40;;;21.40;99.90;;;;;;5137620;27;20065;-74
2023/07/06 10:02:24;;;;;;;0.33;0.33;;;21.40;99.90;;;;;;5137383;27;20467;-72
2023/07/06 10:05:21;;;;;;;0.30;0.30;;;21.30;99.90;;;;;;5118714;27;20627;-72
2023/07/06 10:07:53;;;;;;;1.55;0.40;;;21.20;99.90;;;;;;5137227;27;20043;-73
2023/07/06 10:10:55;;;;;;;0.30;0.30;;;21.20;99.90;;;;;;5137327;27;20499;-73
2023/07/06 10:13:37;;;;;;;0.38;0.38;;;21.30;99.90;;;;;;5115566;27;20047;-73
2023/07/06 10:16:42;;;;;;;0.30;0.30;;;21.50;99.90;;;;;;5127695;27;20390;-73
2023/07/06 10:19:31;;;;;;;0.30;0.30;;;21.70;99.90;;;;;;5137152;27;20391;-73
2023/07/06 10:22:20;;;;;;;0.30;0.30;;;21.80;99.90;;;;;;5136972;27;20046;-73
2023/07/06 10:25:33;;;;;;;0.88;0.88;;;22.10;99.90;;;;;;5137020;27;20088;-74
2023/07/06 10:28:14;;;;;;;0.40;0.40;;;22.10;99.90;;;;;;5069956;28;20040;-75
2023/07/06 10:30:45;;;;;;;0.70;0.70;;;22.10;99.90;;;;;;5053332;28;20045;-75
2023/07/06 10:33:21;;;;;;;0.40;0.40;;;22.20;99.90;;;;;;5105210;27;20058;-73
2023/07/06 10:35:50;;;;;;;0.40;0.40;;;22.30;99.90;;;;;;5136841;27;20047;-74
2023/07/06 10:38:16;;;;;;;0.30;0.30;;;22.20;99.90;;;;;;5136602;27;20047;-76
2023/07/06 10:40:49;;;;;;;0.40;0.40;;;22.30;99.90;;;;;;5136433;27;20049;-74
2023/07/06 10:43:14;;;;;;;0.30;0.30;;;22.30;99.90;;;;;;5136734;27;20061;-73
2023/07/06 10:45:42;;;;;;;0.40;0.40;;;22.50;99.90;;;;;;5118248;27;20170;-74
2023/07/06 10:48:31;;;;;;;0.30;0.30;;;22.40;99.90;;;;;;5135981;27;20027;-75
2023/07/06 10:51:04;;;;;;;0.68;0.68;;;22.50;99.90;;;;;;5135358;27;20039;-74
2023/07/06 10:53:37;;;;;;;0.30;0.30;;;22.70;99.90;;;;;;5136433;27;20051;-74
2023/07/06 10:56:03;;;;;;;0.30;0.30;;;22.60;99.90;;;;;;5136455;27;20035;-75
2023/07/06 10:58:36;;;;;;;0.30;0.30;;;22.30;99.90;;;;;;5136200;27;20469;-74
2023/07/06 11:01:09;;;;;;;0.30;0.30;;;22.20;99.90;;;;;;5136372;27;20035;-77
2023/07/06 11:03:37;;;;;;;0.40;0.40;;;22.00;99.90;;;;;;5136490;27;20045;-75
2023/07/06 11:06:11;;;;;;;0.30;0.30;;;21.90;99.90;;;;;;5135606;27;20487;-73
2023/07/06 11:09:04;;;;;;;0.30;0.30;;;22.20;99.90;;;;;;5136033;27;20089;-74
2023/07/06 11:11:34;;;;;;;0.30;0.30;;;22.60;99.90;;;;;;5136214;27;20365;-75
2023/07/06 11:14:33;;;;;;;0.40;0.40;;;22.60;99.90;;;;;;5118078;27;20039;-76
2023/07/06 11:17:10;;;;;;;0.32;0.32;;;22.40;99.90;;;;;;5135882;27;20064;-75
2023/07/06 11:19:54;;;;;;;0.30;0.30;;;22.10;99.90;;;;;;5123243;27;20055;-75
2023/07/06 11:22:23;;;;;;;0.50;0.50;;;21.90;99.90;;;;;;5115320;28;20035;-75
2023/07/06 11:24:55;;;;;;;0.50;0.50;;;21.90;99.90;;;;;;5115336;28;20092;-76
2023/07/06 11:27:33;;;;;;;0.40;0.40;;;22.10;99.90;;;;;;5097573;28;20045;-76
2023/07/06 11:30:31;;;;;;;0.60;0.60;;;22.40;99.90;;;;;;5114842;28;20111;-77
2023/07/06 11:33:08;;;;;;;0.40;0.40;;;22.70;99.90;;;;;;5114945;28;20036;-74
2023/07/06 11:35:58;;;;;;;0.30;0.30;;;22.80;99.90;;;;;;5114817;28;20042;-74
2023/07/06 11:38:43;;;;;;;0.40;0.40;;;23.10;99.90;;;;;;5114836;28;20467;-75
2023/07/06 11:41:26;;;;;;;0.30;0.30;;;23.30;99.90;;;;;;5115033;28;20039;-74
2023/07/06 11:44:13;;;;;;;0.63;0.63;;;23.60;99.90;;;;;;5115122;28;20050;-75
2023/07/06 11:46:41;;;;;;;0.40;0.40;;;23.80;99.90;;;;;;5114531;28;20348;-75
2023/07/06 11:49:34;;;;;;;0.40;0.40;;;23.80;99.90;;;;;;5114598;28;20039;-74
2023/07/06 11:52:04;;;;;;;0.30;0.30;;;23.60;99.90;;;;;;5114645;28;20039;-75
2023/07/06 11:54:48;;;;;;;0.30;0.30;;;23.40;99.90;;;;;;5114924;28;20127;-75
2023/07/06 11:57:25;;;;;;;0.30;0.30;;;23.40;99.90;;;;;;5114487;28;20456;-74
2023/07/06 12:00:17;;;;;;;0.52;0.52;;;23.40;99.90;;;;;;5114902;28;20044;-76
2023/07/06 12:03:04;;;;;;;0.30;0.30;;;23.60;99.90;;;;;;5114447;28;20090;-77
2023/07/06 12:05:37;;;;;;;0.30;0.30;;;23.60;99.90;;;;;;5114336;28;20108;-75
2023/07/06 12:08:10;;;;;;;1.08;0.57;;;23.70;99.90;;;;;;5114334;28;20479;-75
2023/07/06 12:10:38;;;;;;;0.30;0.30;;;23.70;99.90;;;;;;5114457;28;20039;-76
2023/07/06 12:13:11;;;;;;;0.30;0.30;;;23.70;99.90;;;;;;5114269;28;20460;-75
2023/07/06 12:15:36;;;;;;;0.28;0.28;;;23.80;99.90;;;;;;5114374;28;20118;-75
2023/07/06 12:18:02;;;;;;;0.30;0.30;;;23.90;99.90;;;;;;5113974;28;20126;-75
2023/07/06 12:20:31;;;;;;;0.40;0.40;;;23.90;99.90;;;;;;5130383;27;20126;-77
2023/07/06 12:22:59;;;;;;;0.82;0.82;;;23.80;99.90;;;;;;5114271;28;20044;-74
2023/07/06 12:25:27;;;;;;;0.30;0.30;;;23.80;99.90;;;;;;5114164;28;20047;-73
2023/07/06 12:28:00;;;;;;;0.30;0.30;;;23.70;99.90;;;;;;5114218;28;20376;-76
2023/07/06 12:30:33;;;;;;;0.50;0.50;;;23.70;99.90;;;;;;5113690;28;20487;-76
2023/07/06 12:33:04;;;;;;;0.30;0.30;;;23.80;99.90;;;;;;5113860;28;20028;-76
2023/07/06 12:35:34;;;;;;;0.30;0.30;;;24.00;99.90;;;;;;5114029;28;20472;-76
2023/07/06 12:38:09;;;;;;;0.30;0.30;;;23.90;99.90;;;;;;5114134;28;20086;-76
2023/07/06 12:40:36;;;;;;;0.30;0.30;;;23.80;99.90;;;;;;5114131;28;20032;-76
2023/07/06 12:43:03;;;;;;;0.30;0.30;;;23.60;99.90;;;;;;5113870;28;20367;-76
2023/07/06 12:45:31;;;;;;;0.20;0.20;;;23.50;99.90;;;;;;5114015;28;20387;-76
2023/07/06 12:48:03;;;;;;;0.20;0.20;;;23.50;99.90;;;;;;5129573;27;20051;-76
2023/07/06 12:50:40;;;;;;;10.85;1.38;;;23.60;99.90;;;;;;5113888;28;20078;-76
2023/07/06 12:53:15;;;;;;;0.30;0.30;;;23.90;99.90;;;;;;5113669;28;20081;-77
2023/07/06 12:55:41;;;;;;;0.20;0.20;;;23.90;99.90;;;;;;5114050;28;20075;-72
2023/07/06 12:58:27;;;;;;;0.30;0.30;;;23.90;99.90;;;;;;5114461;28;20046;-74
2023/07/06 13:01:04;;;;;;;0.20;0.20;;;24.10;99.90;;;;;;5113896;28;20453;-74
2023/07/06 13:03:30;;;;;;;0.20;0.20;;;24.20;99.90;;;;;;5113853;28;20035;-74
2023/07/06 13:05:57;;;;;;;0.30;0.30;;;24.20;99.90;;;;;;5113836;28;20062;-73
2023/07/06 13:08:24;;;;;;;0.40;0.40;;;24.10;99.90;;;;;;5114618;28;20046;-76
2023/07/06 13:11:03;;;;;;;0.20;0.20;;;23.90;99.90;;;;;;5114272;28;20035;-75